createdAt,value
2022-09-28T00:01:48.272Z,98719.50
2022-09-28T00:04:16.082Z,98725.13
2022-09-28T00:06:43.986Z,98724.81
2022-09-28T00:09:11.679Z,98724.22
2022-09-28T00:11:39.550Z,98728.19
2022-09-28T00:14:07.548Z,98724.47
2022-09-28T00:16:39.865Z,98726.03
2022-09-28T00:19:08.543Z,98718.97
2022-09-28T00:21:38.127Z,98722.38
2022-09-28T00:24:13.490Z,98714.03
2022-09-28T00:26:54.503Z,98714.84
2022-09-28T00:29:28.057Z,98710.34
2022-09-28T00:32:03.147Z,98709.13
2022-09-28T00:34:34.865Z,98713.00
2022-09-28T00:37:05.209Z,98709.44
2022-09-28T00:39:32.821Z,98721.31
2022-09-28T00:42:00.770Z,98716.50
2022-09-28T00:44:42.108Z,98721.63
2022-09-28T00:47:31.408Z,98724.06
2022-09-28T00:50:22.404Z,98719.31
2022-09-28T00:53:02.735Z,98717.38
2022-09-28T00:55:51.328Z,98725.06
2022-09-28T00:58:30.050Z,98721.56
2022-09-28T01:00:59.619Z,98728.81
2022-09-28T01:03:28.559Z,98719.13
2022-09-28T01:05:59.277Z,98721.50
2022-09-28T01:08:29.677Z,98719.78
2022-09-28T01:10:59.344Z,98717.72
2022-09-28T01:13:31.673Z,98712.38
2022-09-28T01:16:14.842Z,98712.00
2022-09-28T01:19:08.315Z,98714.13
2022-09-28T01:21:51.222Z,98710.28
2022-09-28T01:24:38.547Z,98710.75
2022-09-28T01:27:49.097Z,98709.03
2022-09-28T01:30:22.118Z,98709.38
2022-09-28T01:32:58.219Z,98711.47
2022-09-28T01:35:49.249Z,98708.94
2022-09-28T01:38:23.693Z,98717.75
2022-09-28T01:40:53.282Z,98710.13
2022-09-28T01:43:25.216Z,98714.75
2022-09-28T01:46:03.608Z,98713.69
2022-09-28T01:48:38.364Z,98713.91
2022-09-28T01:51:12.660Z,98716.84
2022-09-28T01:53:49.727Z,98719.63
2022-09-28T01:56:34.590Z,98717.50
2022-09-28T01:59:12.423Z,98706.94
2022-09-28T02:01:49.390Z,98710.44
2022-09-28T02:04:23.076Z,98709.84
2022-09-28T02:07:14.363Z,98706.16
2022-09-28T02:09:47.420Z,98699.16
2022-09-28T02:12:24.027Z,98699.06
2022-09-28T02:14:59.789Z,98706.34
2022-09-28T02:17:27.579Z,98705.19
2022-09-28T02:19:55.669Z,98721.44
2022-09-28T02:22:34.097Z,98718.53
2022-09-28T02:25:10.049Z,98733.28
2022-09-28T02:27:55.721Z,98729.06
2022-09-28T02:30:23.663Z,98730.34
2022-09-28T02:32:56.317Z,98723.16
2022-09-28T02:35:24.910Z,98729.88
2022-09-28T02:37:55.254Z,98719.78
2022-09-28T02:40:26.788Z,98719.53
2022-09-28T02:43:18.556Z,98716.06
2022-09-28T02:46:02.238Z,98708.78
2022-09-28T02:49:30.275Z,98709.13
2022-09-28T02:52:13.808Z,98715.03
2022-09-28T02:55:12.362Z,98717.56
2022-09-28T02:57:56.368Z,98717.56
2022-09-28T03:00:24.718Z,98715.69
2022-09-28T03:03:13.656Z,98709.09
2022-09-28T03:06:07.917Z,98718.38
2022-09-28T03:09:04.975Z,98718.38
2022-09-28T03:11:42.615Z,98714.53
2022-09-28T03:14:11.679Z,98717.53
2022-09-28T03:16:57.838Z,98716.72
2022-09-28T03:19:30.631Z,98721.81
2022-09-28T03:22:01.231Z,98720.78
2022-09-28T03:24:28.999Z,98720.31
2022-09-28T03:26:57.328Z,98717.16
2022-09-28T03:29:25.079Z,98718.53
2022-09-28T03:31:58.976Z,98718.63
2022-09-28T03:34:26.696Z,98723.47
2022-09-28T03:36:54.671Z,98722.19
2022-09-28T03:39:22.329Z,98722.78
2022-09-28T03:41:53.790Z,98726.34
2022-09-28T03:44:22.473Z,98717.53
2022-09-28T03:46:51.133Z,98716.22
2022-09-28T03:49:18.976Z,98714.13
2022-09-28T03:51:47.262Z,98713.06
2022-09-28T03:54:15.021Z,98708.56
2022-09-28T03:56:42.637Z,98713.91
2022-09-28T03:59:10.503Z,98712.63
2022-09-28T04:01:38.419Z,98715.28
2022-09-28T04:04:06.558Z,98707.72
2022-09-28T04:06:34.382Z,98712.53
2022-09-28T04:09:02.071Z,98717.28
2022-09-28T04:11:43.033Z,98710.22
2022-09-28T04:14:18.976Z,98714.50
2022-09-28T04:16:48.339Z,98716.38
2022-09-28T04:19:17.066Z,98717.66
2022-09-28T04:21:52.049Z,98711.50
2022-09-28T04:24:20.573Z,98721.50
2022-09-28T04:26:49.669Z,98729.03
2022-09-28T04:29:20.925Z,98728.13
2022-09-28T04:31:55.409Z,98726.06
2022-09-28T04:34:37.094Z,98717.28
2022-09-28T04:37:06.560Z,98714.75
2022-09-28T04:39:34.440Z,98712.22
2022-09-28T04:42:03.482Z,98715.22
2022-09-28T04:44:31.100Z,98708.13
2022-09-28T04:47:07.597Z,98710.00
2022-09-28T04:49:44.461Z,98715.59
2022-09-28T04:52:18.629Z,98719.78
2022-09-28T04:54:49.735Z,98710.97
2022-09-28T04:57:17.554Z,98704.91
2022-09-28T04:59:45.417Z,98712.13
2022-09-28T05:02:15.185Z,98703.78
2022-09-28T05:05:21.967Z,98710.25
2022-09-28T05:08:10.020Z,98718.38
2022-09-28T05:10:41.047Z,98724.03
2022-09-28T05:13:10.576Z,98721.00
2022-09-28T05:15:40.093Z,98714.38
2022-09-28T05:18:08.394Z,98717.28
2022-09-28T05:20:54.852Z,98725.28
2022-09-28T05:23:22.628Z,98723.44
2022-09-28T05:25:51.214Z,98730.41
2022-09-28T05:28:28.300Z,98731.47
2022-09-28T05:31:27.499Z,98729.81
2022-09-28T05:34:08.059Z,98731.47
2022-09-28T05:36:37.085Z,98724.00
2022-09-28T05:39:05.008Z,98726.66
2022-09-28T05:41:32.927Z,98731.81
2022-09-28T05:44:01.763Z,98729.38
2022-09-28T05:46:31.075Z,98726.84
2022-09-28T05:49:01.278Z,98730.69
2022-09-28T05:51:29.311Z,98731.84
2022-09-28T05:54:00.690Z,98736.38
2022-09-28T05:56:31.789Z,98755.88
2022-09-28T05:58:59.440Z,98763.41
2022-09-28T06:01:30.192Z,98757.47
2022-09-28T06:04:00.151Z,98762.94
2022-09-28T06:06:28.107Z,98766.41
2022-09-28T06:08:57.525Z,98759.53
2022-09-28T06:11:32.887Z,98760.44
2022-09-28T06:14:06.396Z,98773.56
2022-09-28T06:16:35.131Z,98775.03
2022-09-28T06:19:02.845Z,98772.75
2022-09-28T06:21:39.307Z,98769.59
2022-09-28T06:24:08.073Z,98757.16
2022-09-28T06:26:37.252Z,98764.53
2022-09-28T06:29:06.002Z,98766.72
2022-09-28T06:31:33.849Z,98766.97
2022-09-28T06:34:02.069Z,98775.88
2022-09-28T06:36:31.579Z,98772.50
2022-09-28T06:38:59.671Z,98775.19
2022-09-28T06:41:28.056Z,98774.44
2022-09-28T06:43:59.745Z,98773.16
2022-09-28T06:46:59.498Z,98771.28
2022-09-28T06:49:40.637Z,98777.41
2022-09-28T06:52:28.615Z,98789.09
2022-09-28T06:55:06.682Z,98780.31
2022-09-28T06:58:03.248Z,98771.56
2022-09-28T07:00:34.232Z,98778.13
2022-09-28T07:03:04.540Z,98779.09
2022-09-28T07:05:56.612Z,98784.63
2022-09-28T07:08:43.529Z,98793.19
2022-09-28T07:11:41.616Z,98798.22
2022-09-28T07:14:47.881Z,98799.75
2022-09-28T07:17:16.979Z,98801.03
2022-09-28T07:19:44.736Z,98802.78
2022-09-28T07:22:18.938Z,98797.31
2022-09-28T07:25:14.398Z,98790.00
2022-09-28T07:28:02.089Z,98802.09
2022-09-28T07:30:50.406Z,98788.75
2022-09-28T07:33:38.821Z,98794.50
2022-09-28T07:36:17.993Z,98790.50
2022-09-28T07:39:12.406Z,98798.72
2022-09-28T07:42:05.779Z,98802.63
2022-09-28T07:44:33.918Z,98795.53
2022-09-28T07:47:02.326Z,98795.31
2022-09-28T07:50:13.601Z,98801.00
2022-09-28T07:52:56.389Z,98805.06
2022-09-28T07:55:31.183Z,98806.88
2022-09-28T07:58:41.927Z,98807.44
2022-09-28T08:01:34.714Z,98800.63
2022-09-28T08:04:06.466Z,98808.22
2022-09-28T08:06:36.250Z,98818.69
2022-09-28T08:09:06.070Z,98812.78
2022-09-28T08:12:10.239Z,98827.44
2022-09-28T08:14:49.257Z,98821.50
2022-09-28T08:17:35.808Z,98822.50
2022-09-28T08:20:26.774Z,98823.06
2022-09-28T08:22:54.611Z,98826.31
2022-09-28T08:25:22.426Z,98821.47
2022-09-28T08:27:50.253Z,98828.13
2022-09-28T08:30:18.223Z,98825.44
2022-09-28T08:33:23.706Z,98831.19
2022-09-28T08:36:10.478Z,98823.06
2022-09-28T08:38:56.877Z,98829.13
2022-09-28T08:42:44.991Z,98826.25
2022-09-28T08:45:19.677Z,98819.50
2022-09-28T08:48:22.220Z,98824.47
2022-09-28T08:51:22.165Z,98827.88
2022-09-28T08:54:39.356Z,98828.38
2022-09-28T08:57:30.599Z,98827.66
2022-09-28T09:00:01.668Z,98834.13
2022-09-28T09:02:37.164Z,98840.47
2022-09-28T09:05:19.501Z,98835.97
2022-09-28T09:08:16.242Z,98832.47
2022-09-28T09:10:49.190Z,98837.00
2022-09-28T09:13:38.884Z,98838.66
2022-09-28T09:16:32.091Z,98843.66
2022-09-28T09:19:40.276Z,98832.09
2022-09-28T09:22:34.074Z,98832.31
2022-09-28T09:25:26.220Z,98835.66
2022-09-28T09:28:11.997Z,98831.47
2022-09-28T09:30:52.350Z,98840.34
2022-09-28T09:33:56.791Z,98843.34
2022-09-28T09:37:01.408Z,98844.53
2022-09-28T09:40:09.099Z,98842.53
2022-09-28T09:43:27.975Z,98846.47
2022-09-28T09:46:24.676Z,98848.69
2022-09-28T09:49:38.713Z,98850.38
2022-09-28T09:52:24.972Z,98845.81
2022-09-28T09:54:57.332Z,98847.69
2022-09-28T09:57:47.434Z,98856.34
2022-09-28T10:00:34.267Z,98857.25
2022-09-28T10:03:27.524Z,98856.44
2022-09-28T10:06:06.757Z,98848.66
2022-09-28T10:08:39.758Z,98855.78
2022-09-28T10:11:14.400Z,98854.06
2022-09-28T10:13:49.907Z,98860.75
2022-09-28T10:16:55.891Z,98866.66
2022-09-28T10:19:43.936Z,98856.63
2022-09-28T10:22:44.479Z,98862.00
2022-09-28T10:25:18.385Z,98861.78
2022-09-28T10:27:52.376Z,98860.47
2022-09-28T10:30:25.550Z,98865.91
2022-09-28T10:32:59.557Z,98863.56
2022-09-28T10:35:42.571Z,98859.53
2022-09-28T10:38:19.910Z,98864.09
2022-09-28T10:41:00.188Z,98864.84
2022-09-28T10:44:07.428Z,98862.03
2022-09-28T10:47:01.213Z,98862.66
2022-09-28T10:49:47.027Z,98866.22
2022-09-28T10:52:46.494Z,98856.13
2022-09-28T10:56:46.469Z,98858.28
2022-09-28T10:59:24.503Z,98855.06
2022-09-28T11:01:56.008Z,98855.00
2022-09-28T11:04:27.974Z,98854.13
2022-09-28T11:09:34.854Z,98859.53
2022-09-28T11:12:15.972Z,98864.50
2022-09-28T11:14:44.694Z,98867.44
2022-09-28T11:17:30.182Z,98862.28
2022-09-28T11:20:01.174Z,98859.09
2022-09-28T11:22:41.895Z,98854.63
2022-09-28T11:25:16.989Z,98858.75
2022-09-28T11:27:53.754Z,98863.53
2022-09-28T11:30:23.685Z,98850.22
2022-09-28T11:33:20.333Z,98852.72
2022-09-28T11:36:26.017Z,98848.44
2022-09-28T11:38:59.716Z,98852.47
2022-09-28T11:42:04.014Z,98850.38
2022-09-28T11:44:40.043Z,98851.19
2022-09-28T11:47:17.850Z,98858.22
2022-09-28T11:49:57.725Z,98860.06
2022-09-28T11:52:38.902Z,98852.03
2022-09-28T11:55:12.756Z,98853.06
2022-09-28T11:57:43.986Z,98862.13
2022-09-28T12:00:16.554Z,98860.53
2022-09-28T12:03:10.000Z,98868.56
2022-09-28T12:05:44.827Z,98868.00
2022-09-28T12:08:27.738Z,98869.41
2022-09-28T12:11:15.924Z,98858.13
2022-09-28T12:14:12.046Z,98864.59
2022-09-28T12:17:05.995Z,98876.69
2022-09-28T12:20:14.673Z,98876.97
2022-09-28T12:23:06.994Z,98872.44
2022-09-28T12:25:42.831Z,98871.94
2022-09-28T12:28:38.534Z,98864.94
2022-09-28T12:31:18.058Z,98867.66
2022-09-28T12:33:49.536Z,98864.91
2022-09-28T12:36:28.660Z,98871.91
2022-09-28T12:39:57.604Z,98860.34
2022-09-28T12:42:53.118Z,98872.47
2022-09-28T12:46:10.522Z,98868.19
2022-09-28T12:49:51.496Z,98856.59
2022-09-28T12:51:57.770Z,98858.72
2022-09-28T12:54:28.606Z,98858.22
2022-09-28T12:56:59.880Z,98857.41
2022-09-28T12:59:50.013Z,98855.25
2022-09-28T13:02:55.094Z,98854.72
2022-09-28T13:09:24.453Z,98850.00
2022-09-28T13:11:59.461Z,98858.00
2022-09-28T13:14:30.186Z,98859.03
2022-09-28T13:17:13.315Z,98866.81
2022-09-28T13:20:16.161Z,98861.41
2022-09-28T13:23:08.900Z,98858.25
2022-09-28T13:25:58.139Z,98858.16
2022-09-28T13:28:37.918Z,98863.72
2022-09-28T13:31:06.473Z,98853.97
2022-09-28T13:33:44.138Z,98852.09
2022-09-28T13:36:30.773Z,98853.72
2022-09-28T13:39:00.432Z,98854.56
2022-09-28T13:41:34.456Z,98854.34
2022-09-28T13:44:08.218Z,98845.00
2022-09-28T13:47:00.477Z,98841.38
2022-09-28T13:50:05.973Z,98848.69
2022-09-28T13:52:45.805Z,98843.91
2022-09-28T13:55:25.569Z,98842.09
2022-09-28T13:58:19.125Z,98838.38
2022-09-28T14:00:57.205Z,98840.03
2022-09-28T14:03:26.867Z,98842.47
2022-09-28T14:06:00.996Z,98840.59
2022-09-28T14:08:43.997Z,98835.66
2022-09-28T14:11:37.756Z,98835.63
2022-09-28T14:14:08.337Z,98830.53
2022-09-28T14:16:37.312Z,98845.00
2022-09-28T14:19:25.403Z,98839.88
2022-09-28T14:22:02.690Z,98835.25
2022-09-28T14:24:55.622Z,98837.66
2022-09-28T14:28:01.525Z,98832.06
2022-09-28T14:30:51.664Z,98837.38
2022-09-28T14:33:19.432Z,98839.13
2022-09-28T14:35:56.761Z,98837.97
2022-09-28T14:38:53.681Z,98843.84
2022-09-28T14:41:38.175Z,98843.00
2022-09-28T14:44:08.874Z,98840.59
2022-09-28T14:46:43.544Z,98842.16
2022-09-28T14:49:20.291Z,98849.41
2022-09-28T14:51:47.948Z,98845.53
2022-09-28T14:54:22.965Z,98847.63
2022-09-28T14:56:53.828Z,98838.16
2022-09-28T14:59:36.287Z,98845.91
2022-09-28T15:02:17.806Z,98848.38
2022-09-28T15:04:50.823Z,98851.06
2022-09-28T15:07:21.619Z,98850.81
2022-09-28T15:09:55.156Z,98857.56
2022-09-28T15:12:32.377Z,98863.50
2022-09-28T15:15:20.473Z,98862.66
2022-09-28T15:17:59.723Z,98857.34
2022-09-28T15:20:31.637Z,98853.03
2022-09-28T15:23:00.355Z,98853.84
2022-09-28T15:25:32.280Z,98857.34
2022-09-28T15:28:13.838Z,98868.03
2022-09-28T15:30:41.541Z,98866.88
2022-09-28T15:33:43.761Z,98859.63
2022-09-28T15:36:25.613Z,98855.00
2022-09-28T15:39:00.314Z,98860.28
2022-09-28T15:41:28.951Z,98845.19
2022-09-28T15:44:15.304Z,98845.44
2022-09-28T15:46:46.054Z,98838.94
2022-09-28T15:49:58.691Z,98854.72
2022-09-28T15:52:29.295Z,98850.91
2022-09-28T15:54:57.740Z,98846.34
2022-09-28T15:57:40.587Z,98844.25
2022-09-28T16:00:32.737Z,98836.72
2022-09-28T16:03:09.596Z,98843.69
2022-09-28T16:05:46.923Z,98839.09
2022-09-28T16:08:25.969Z,98848.16
2022-09-28T16:11:05.853Z,98861.22
2022-09-28T16:13:35.143Z,98862.56
2022-09-28T16:16:03.005Z,98856.88
2022-09-28T16:18:32.575Z,98850.97
2022-09-28T16:21:46.015Z,98843.16
2022-09-28T16:24:28.537Z,98847.06
2022-09-28T16:27:05.838Z,98845.06
2022-09-28T16:29:42.985Z,98837.53
2022-09-28T16:32:25.807Z,98835.78
2022-09-28T16:35:11.705Z,98824.94
2022-09-28T16:37:42.811Z,98831.06
2022-09-28T16:40:11.366Z,98828.28
2022-09-28T16:42:43.479Z,98829.03
2022-09-28T16:45:20.431Z,98834.38
2022-09-28T16:47:56.754Z,98821.50
2022-09-28T16:50:25.546Z,98823.31
2022-09-28T16:53:19.463Z,98829.13
2022-09-28T16:55:49.939Z,98826.47
2022-09-28T16:58:28.582Z,98815.28
2022-09-28T17:00:56.713Z,98830.00
2022-09-28T17:03:25.220Z,98833.84
2022-09-28T17:06:00.439Z,98839.72
2022-09-28T17:08:28.984Z,98842.69
2022-09-28T17:11:14.802Z,98831.69
2022-09-28T17:13:44.263Z,98817.00
2022-09-28T17:16:25.303Z,98820.03
2022-09-28T17:19:18.195Z,98824.56
2022-09-28T17:21:47.009Z,98827.72
2022-09-28T17:24:17.211Z,98817.00
2022-09-28T17:26:49.239Z,98817.34
2022-09-28T17:29:17.180Z,98818.09
2022-09-28T17:31:48.966Z,98825.03
2022-09-28T17:34:19.758Z,98817.00
2022-09-28T17:36:50.086Z,98812.81
2022-09-28T17:39:21.391Z,98820.84
2022-09-28T17:41:53.391Z,98819.75
2022-09-28T17:44:25.124Z,98824.06
2022-09-28T17:46:56.015Z,98828.06
2022-09-28T17:49:28.504Z,98833.88
2022-09-28T17:51:57.666Z,98823.44
2022-09-28T17:54:26.302Z,98837.91
2022-09-28T17:56:54.456Z,98846.16
2022-09-28T17:59:22.686Z,98850.91
2022-09-28T18:01:51.057Z,98853.16
2022-09-28T18:04:46.917Z,98850.69
2022-09-28T18:07:06.815Z,98855.75
2022-09-28T18:09:36.976Z,98854.69
2022-09-28T18:12:05.373Z,98861.66
2022-09-28T18:14:33.355Z,98853.88
2022-09-28T18:17:01.061Z,98860.78
2022-09-28T18:19:32.150Z,98874.38
2022-09-28T18:22:01.650Z,98877.31
2022-09-28T18:24:29.880Z,98883.66
2022-09-28T18:26:57.768Z,98889.00
2022-09-28T18:29:26.221Z,98895.16
2022-09-28T18:31:57.835Z,98902.63
2022-09-28T18:34:25.657Z,98902.53
2022-09-28T18:36:53.633Z,98902.78
2022-09-28T18:39:21.375Z,98911.31
2022-09-28T18:41:50.292Z,98921.19
2022-09-28T18:44:18.021Z,98918.44
2022-09-28T18:46:45.966Z,98924.50
2022-09-28T18:49:13.786Z,98916.94
2022-09-28T18:51:41.512Z,98927.31
2022-09-28T18:54:09.328Z,98928.63
2022-09-28T18:56:54.116Z,98940.59
2022-09-28T18:59:23.385Z,98937.66
2022-09-28T19:01:53.220Z,98946.41
2022-09-28T19:04:21.058Z,98949.47
2022-09-28T19:06:52.419Z,98944.16
2022-09-28T19:09:23.445Z,98947.53
2022-09-28T19:11:51.826Z,98944.66
2022-09-28T19:14:19.695Z,98948.41
2022-09-28T19:16:47.599Z,98946.78
2022-09-28T19:19:17.645Z,98939.81
2022-09-28T19:21:45.884Z,98942.50
2022-09-28T19:24:15.707Z,98939.22
2022-09-28T19:26:44.031Z,98937.38
2022-09-28T19:29:11.821Z,98922.88
2022-09-28T19:31:39.661Z,98915.00
2022-09-28T19:34:09.301Z,98911.41
2022-09-28T19:36:41.975Z,98907.34
2022-09-28T19:39:14.672Z,98899.09
2022-09-28T19:41:45.865Z,98886.31
2022-09-28T19:44:33.287Z,98874.50
2022-09-28T19:47:15.877Z,98877.31
2022-09-28T19:49:43.598Z,98894.81
2022-09-28T19:52:16.744Z,98893.53
2022-09-28T19:54:57.027Z,98887.50
2022-09-28T19:57:30.748Z,98881.34
2022-09-28T20:00:03.310Z,98875.09
2022-09-28T20:02:35.019Z,98871.84
2022-09-28T20:05:06.649Z,98882.53
2022-09-28T20:07:36.963Z,98887.88
2022-09-28T20:10:05.123Z,98886.81
2022-09-28T20:12:34.594Z,98892.16
2022-09-28T20:15:02.271Z,98892.41
2022-09-28T20:17:29.987Z,98885.19
2022-09-28T20:19:57.824Z,98890.53
2022-09-28T20:22:25.471Z,98891.59
2022-09-28T20:24:56.748Z,98889.38
2022-09-28T20:27:27.206Z,98899.47
2022-09-28T20:29:55.043Z,98896.47
2022-09-28T20:32:23.635Z,98893.44
2022-09-28T20:34:51.719Z,98896.81
2022-09-28T20:37:19.461Z,98892.97
2022-09-28T20:39:47.105Z,98893.69
2022-09-28T20:42:15.630Z,98898.31
2022-09-28T20:44:43.807Z,98888.34
2022-09-28T20:47:11.526Z,98877.78
2022-09-28T20:49:39.161Z,98876.41
2022-09-28T20:52:06.812Z,98876.06
2022-09-28T20:54:34.484Z,98877.31
2022-09-28T20:57:17.555Z,98876.72
2022-09-28T20:59:55.338Z,98877.66
2022-09-28T21:02:29.595Z,98886.59
2022-09-28T21:04:59.427Z,98887.03
2022-09-28T21:07:27.161Z,98882.34
2022-09-28T21:09:55.847Z,98878.28
2022-09-28T21:12:26.394Z,98883.28
2022-09-28T21:14:54.439Z,98884.19
2022-09-28T21:17:23.112Z,98880.50
2022-09-28T21:19:50.876Z,98885.59
2022-09-28T21:22:18.465Z,98887.22
2022-09-28T21:24:46.157Z,98892.06
2022-09-28T21:27:13.734Z,98892.47
2022-09-28T21:29:41.534Z,98884.56
2022-09-28T21:32:09.278Z,98886.34
2022-09-28T21:34:37.365Z,98885.44
2022-09-28T21:37:05.602Z,98879.19
2022-09-28T21:39:33.205Z,98877.66
2022-09-28T21:42:00.847Z,98880.69
2022-09-28T21:44:28.542Z,98890.06
2022-09-28T21:46:56.228Z,98887.19
2022-09-28T21:49:23.983Z,98886.00
2022-09-28T21:51:52.747Z,98891.22
2022-09-28T21:54:21.365Z,98898.66
2022-09-28T21:56:49.096Z,98902.00
2022-09-28T21:59:18.705Z,98903.53
2022-09-28T22:01:46.596Z,98903.19
2022-09-28T22:04:14.486Z,98910.25
2022-09-28T22:06:42.434Z,98904.16
2022-09-28T22:09:10.330Z,98911.00
2022-09-28T22:11:38.084Z,98910.63
2022-09-28T22:14:09.494Z,98917.44
2022-09-28T22:16:42.731Z,98913.63
2022-09-28T22:19:10.814Z,98915.34
2022-09-28T22:21:39.179Z,98921.13
2022-09-28T22:24:07.707Z,98930.16
2022-09-28T22:26:37.407Z,98943.13
2022-09-28T22:29:07.795Z,98930.13
2022-09-28T22:31:37.862Z,98938.78
2022-09-28T22:34:06.606Z,98929.03
2022-09-28T22:36:34.720Z,98926.00
2022-09-28T22:39:19.061Z,98925.41
2022-09-28T22:41:46.949Z,98925.06
2022-09-28T22:44:14.977Z,98921.22
2022-09-28T22:46:42.875Z,98924.91
2022-09-28T22:49:11.402Z,98926.16
2022-09-28T22:51:42.564Z,98926.16
2022-09-28T22:54:15.329Z,98933.59
2022-09-28T22:56:44.364Z,98932.97
2022-09-28T22:59:12.125Z,98932.97
2022-09-28T23:01:40.006Z,98941.88
2022-09-28T23:04:09.424Z,98931.66
2022-09-28T23:06:37.504Z,98925.88
2022-09-28T23:09:05.195Z,98928.19
2022-09-28T23:11:33.035Z,98930.47
2022-09-28T23:14:00.813Z,98928.47
2022-09-28T23:16:28.610Z,98931.75
2022-09-28T23:19:02.013Z,98935.41
2022-09-28T23:21:29.917Z,98941.19
2022-09-28T23:24:01.089Z,98945.41
2022-09-28T23:26:32.983Z,98951.75
2022-09-28T23:29:00.968Z,98945.19
2022-09-28T23:31:33.307Z,98943.84
2022-09-28T23:34:03.405Z,98942.13
2022-09-28T23:36:31.857Z,98951.09
2022-09-28T23:39:03.387Z,98951.63
2022-09-28T23:41:31.108Z,98950.31
2022-09-28T23:43:59.144Z,98947.84
2022-09-28T23:46:27.270Z,98966.72
2022-09-28T23:48:55.148Z,98964.41
2022-09-28T23:51:22.907Z,98970.34
2022-09-28T23:53:50.998Z,98973.50
2022-09-28T23:56:19.176Z,98966.41
2022-09-28T23:58:46.896Z,98969.66
